»·PEaware :: VRD942 KSFO-KLAX

VRD942 :: KSFO-KLAX

FLIGHT INFORMATION

Flight Status: Arrived
Operator:
Virgin America
More flights by this operator :: More flights under this callsign
Pilot: Evan Hardin (11783)
Aircraft: AIRBUS A320
(A320)
More flights by this aircraft type
Origin: KSFO San Francisco Intl
United States
Destination: KLAX Los Angeles Intl
United States
More flights between these airports :: More routes between these airports
Route: +SAHEY3 EBAYE AVE SADDE7
File this flight plan on PilotEdge
Remarks:
Altitude:
(Current/Filed)
35,000ft
Speed:
(Current/Filed)
449kts
Departed: 07-Jan-17 07:52 PM
Arrived: 07-Jan-17 08:50 PM
Distance/Time
Traveled:
293nm/0:58
Distance/Time
To Go:
Arrived

Flight Plot

Page will automatically refresh every two minutes.

Flight plan parsing failed; only flown route is shown


Map Options




Map Legend


Flown Route
Filed Route
Departure Airport
Arrival Airport
Navaid (VOR, NDB)
Fix

Horizontal Profiles

Position Reports

Time Latitude Longitude Heading Altitude Ground
Speed
07-Jan-17 19:21 37.616560 -122.381259 14 27ft 0kts
07-Jan-17 19:22 37.616560 -122.381259 14 27ft 0kts
07-Jan-17 19:23 37.616560 -122.381259 14 27ft 0kts
07-Jan-17 19:24 37.616560 -122.381259 14 27ft 0kts
07-Jan-17 19:25 37.616560 -122.381259 14 27ft 0kts
07-Jan-17 19:26 37.616560 -122.381259 14 27ft 0kts
07-Jan-17 19:27 37.616560 -122.381259 14 27ft 0kts
07-Jan-17 19:28 37.616560 -122.381259 14 27ft 0kts
07-Jan-17 19:29 37.616560 -122.381259 14 27ft 0kts
07-Jan-17 19:30 37.616560 -122.381259 14 27ft 0kts
07-Jan-17 19:31 37.616560 -122.381259 14 27ft 0kts
07-Jan-17 19:32 37.616560 -122.381259 14 27ft 0kts
07-Jan-17 19:33 37.616560 -122.381259 14 27ft 0kts
07-Jan-17 19:34 37.616067 -122.381426 14 27ft 0kts
07-Jan-17 19:35 37.616069 -122.381426 14 27ft 0kts
07-Jan-17 19:36 37.616106 -122.381395 39 27ft 3kts
07-Jan-17 19:37 37.615959 -122.380978 124 27ft 0kts
07-Jan-17 19:38 37.615958 -122.380976 124 27ft 0kts
07-Jan-17 19:39 37.615957 -122.380975 124 27ft 0kts
07-Jan-17 19:40 37.615956 -122.380973 124 27ft 0kts
07-Jan-17 19:41 37.615955 -122.380971 124 27ft 0kts
07-Jan-17 19:42 37.616533 -122.379701 24 27ft 8kts
07-Jan-17 19:43 37.618006 -122.379578 339 27ft 4kts
07-Jan-17 19:44 37.620240 -122.383390 297 27ft 22kts
07-Jan-17 19:45 37.622289 -122.388019 326 27ft 16kts
07-Jan-17 19:46 37.625111 -122.393135 301 27ft 13kts
07-Jan-17 19:47 37.625382 -122.393387 1 27ft 0kts
07-Jan-17 19:48 37.625384 -122.393387 1 27ft 0kts
07-Jan-17 19:49 37.625386 -122.393387 1 27ft 0kts
07-Jan-17 19:50 37.625388 -122.393387 1 27ft 0kts
07-Jan-17 19:51 37.625975 -122.392339 117 27ft 7kts
07-Jan-17 19:52 37.613819 -122.363733 120 412ft 166kts
07-Jan-17 19:53 37.590222 -122.303050 119 2694ft 233kts
07-Jan-17 19:54 37.553982 -122.228950 142 5870ft 260kts
07-Jan-17 19:55 37.499400 -122.165813 143 9490ft 276kts
07-Jan-17 19:56 37.433761 -122.095472 145 11372ft 346kts
07-Jan-17 19:57 37.356124 -122.013986 147 14195ft 374kts
07-Jan-17 19:58 37.274391 -121.928629 149 16987ft 390kts
07-Jan-17 19:59 37.189645 -121.840287 150 19508ft 403kts
07-Jan-17 20:00 37.102164 -121.749449 150 21716ft 415kts
07-Jan-17 20:01 37.012176 -121.656145 150 23627ft 426kts
07-Jan-17 20:02 36.919514 -121.560314 149 25279ft 436kts
07-Jan-17 20:03 36.825175 -121.462974 149 26778ft 444kts
07-Jan-17 20:04 36.729110 -121.364103 149 28144ft 452kts
07-Jan-17 20:05 36.631216 -121.263655 149 29424ft 460kts
07-Jan-17 20:06 36.531519 -121.161665 149 30714ft 465kts
07-Jan-17 20:07 36.431818 -121.059603 146 32169ft 466kts
07-Jan-17 20:08 36.345222 -120.938831 139 33600ft 471kts
07-Jan-17 20:09 36.259716 -120.815610 139 34723ft 472kts
07-Jan-17 20:10 36.173946 -120.692561 139 35163ft 470kts
07-Jan-17 20:11 36.088085 -120.569871 139 35170ft 471kts
07-Jan-17 20:12 36.002204 -120.447609 139 35172ft 472kts
07-Jan-17 20:13 35.916319 -120.325807 138 35175ft 471kts
07-Jan-17 20:14 35.828488 -120.206576 142 35176ft 468kts
07-Jan-17 20:15 35.737621 -120.092023 142 35178ft 468kts
07-Jan-17 20:16 35.646449 -119.977092 145 35180ft 465kts
07-Jan-17 20:17 35.543632 -119.885958 153 35187ft 455kts
07-Jan-17 20:18 35.439709 -119.797497 153 35191ft 455kts
07-Jan-17 20:19 35.336815 -119.709589 153 33876ft 451kts
07-Jan-17 20:20 35.234998 -119.622655 152 31627ft 443kts
07-Jan-17 20:21 35.134787 -119.537506 152 29136ft 433kts
07-Jan-17 20:22 35.037399 -119.454572 152 26744ft 420kts
07-Jan-17 20:23 34.945579 -119.376429 152 25743ft 396kts
07-Jan-17 20:24 34.855739 -119.300295 152 24824ft 391kts
07-Jan-17 20:25 34.766665 -119.224929 153 23915ft 387kts
07-Jan-17 20:26 34.676768 -119.149203 152 22983ft 404kts
07-Jan-17 20:27 34.585094 -119.072294 152 20912ft 395kts
07-Jan-17 20:28 34.495958 -118.997628 152 18605ft 384kts
07-Jan-17 20:29 34.408131 -118.924179 152 16106ft 380kts
07-Jan-17 20:30 34.317936 -118.866997 169 13922ft 353kts
07-Jan-17 20:31 34.226305 -118.833284 170 12103ft 332kts
07-Jan-17 20:32 34.140402 -118.801834 169 11405ft 317kts
07-Jan-17 20:33 34.062999 -118.772925 161 9615ft 277kts
07-Jan-17 20:34 34.033074 -118.699441 100 7715ft 280kts
07-Jan-17 20:35 34.024802 -118.612369 99 7015ft 238kts
07-Jan-17 20:36 34.017516 -118.533789 99 6998ft 235kts
07-Jan-17 20:37 34.011098 -118.455360 88 6973ft 236kts
07-Jan-17 20:38 34.020395 -118.378304 84 5572ft 227kts
07-Jan-17 20:39 34.028753 -118.304068 84 4130ft 219kts
07-Jan-17 20:40 34.035951 -118.232312 84 2744ft 211kts
07-Jan-17 20:41 34.043763 -118.161480 81 2607ft 214kts
07-Jan-17 20:42 34.052319 -118.090532 81 2617ft 214kts
07-Jan-17 20:43 34.015454 -118.055255 207 2623ft 218kts
07-Jan-17 20:44 33.985582 -118.118031 253 2613ft 221kts
07-Jan-17 20:45 33.974595 -118.186441 260 2608ft 177kts
07-Jan-17 20:46 33.968375 -118.243339 262 2599ft 170kts
07-Jan-17 20:47 33.962622 -118.299265 262 1815ft 154kts
07-Jan-17 20:48 33.957734 -118.346991 262 1055ft 143kts
07-Jan-17 20:49 33.952896 -118.394488 262 335ft 142kts
07-Jan-17 20:50 33.949119 -118.426013 232 140ft 27kts
07-Jan-17 20:51 33.948410 -118.427017 225 140ft 8kts
07-Jan-17 20:52 33.946889 -118.427896 188 140ft 0kts
07-Jan-17 20:53 33.946545 -118.425244 81 140ft 26kts
07-Jan-17 20:54 33.947956 -118.412862 82 140ft 32kts
07-Jan-17 20:55 33.947403 -118.407966 162 140ft 9kts
07-Jan-17 20:56 33.946921 -118.407879 172 140ft 0kts
07-Jan-17 20:57 33.946921 -118.407879 172 140ft 0kts
07-Jan-17 20:58 33.946921 -118.407879 172 140ft 0kts

Navigation Log

Ident Type
Flight plan parsing failed, navigation log unavailable